Time;durP1;ratioP1;P1;durP2;ratioP2;P2;SDS_P1;SDS_P2;PMS_P1;PMS_P2;Temp;Humidity;BMP_temperature;BMP_pressure;BME280_temperature;BME280_humidity;BME280_pressure;Samples;Min_cycle;Max_cycle;Signal;HPM_P1;HPM_P2
2022/07/22 00:01:41;;;;;;;9.68;6.35;;;;;;;17.02;63.46;97345.90;1734280;82;25680;-78
2022/07/22 00:04:08;;;;;;;9.73;6.47;;;;;;;16.88;63.61;97344.91;1734254;82;25675;-79
2022/07/22 00:06:34;;;;;;;11.57;6.45;;;;;;;16.79;63.72;97343.67;1734167;82;27355;-79
2022/07/22 00:09:01;;;;;;;12.18;6.37;;;;;;;16.81;63.99;97340.16;1734273;82;25835;-78
2022/07/22 00:11:28;;;;;;;10.30;6.12;;;;;;;16.86;64.04;97344.33;1733836;82;25929;-79
2022/07/22 00:13:54;;;;;;;8.33;6.22;;;;;;;16.90;64.07;97344.09;1733925;82;25915;-77
2022/07/22 00:16:21;;;;;;;9.25;6.03;;;;;;;16.92;63.98;97342.48;1734228;82;25378;-80
2022/07/22 00:18:48;;;;;;;11.10;5.97;;;;;;;16.89;63.93;97337.02;1734398;82;27350;-78
2022/07/22 00:21:14;;;;;;;9.40;6.12;;;;;;;16.85;63.99;97345.41;1734161;82;25852;-79
2022/07/22 00:23:41;;;;;;;7.92;6.08;;;;;;;16.80;64.11;97348.05;1734268;82;25706;-78
2022/07/22 00:26:07;;;;;;;8.25;5.75;;;;;;;16.77;64.24;97344.48;1780273;79;25716;-79
2022/07/22 00:28:34;;;;;;;12.88;6.60;;;;;;;16.70;64.35;97345.20;1808789;78;25384;-78
2022/07/22 00:31:01;;;;;;;7.83;5.67;;;;;;;16.69;64.39;97354.44;1808822;79;28141;-78
2022/07/22 00:33:27;;;;;;;11.60;6.20;;;;;;;16.68;64.41;97354.69;1808805;79;25740;-79
2022/07/22 00:35:54;;;;;;;10.00;5.95;;;;;;;16.64;64.46;97351.66;1808774;79;25690;-79
2022/07/22 00:38:20;;;;;;;7.20;5.70;;;;;;;16.62;64.58;97352.95;1808887;79;25727;-79
2022/07/22 00:40:47;;;;;;;8.50;6.05;;;;;;;16.58;64.66;97348.00;1808790;79;25776;-79
2022/07/22 00:43:14;;;;;;;11.33;6.08;;;;;;;16.56;64.72;97348.78;1808851;78;28134;-79
2022/07/22 00:45:40;;;;;;;11.70;6.65;;;;;;;16.55;64.85;97348.48;1808286;79;25749;-78
2022/07/22 00:48:07;;;;;;;9.48;6.22;;;;;;;16.55;64.93;97346.30;1809078;79;25670;-78
2022/07/22 00:50:34;;;;;;;10.60;6.33;;;;;;;16.56;64.93;97341.14;1808842;79;25729;-78
2022/07/22 00:53:01;;;;;;;10.23;5.83;;;;;;;16.55;64.95;97342.22;1808852;79;25732;-78
2022/07/22 00:55:28;;;;;;;8.33;5.92;;;;;;;16.51;65.03;97341.91;1808726;78;27410;-79
2022/07/22 00:57:55;;;;;;;10.08;5.53;;;;;;;16.50;65.05;97343.52;1808856;79;25385;-78
2022/07/22 01:00:23;;;;;;;9.80;5.97;;;;;;;16.46;65.06;97335.55;1808971;78;25762;-78
2022/07/22 01:02:50;;;;;;;13.95;6.28;;;;;;;16.44;65.09;97344.50;1808472;79;25747;-79
2022/07/22 01:05:17;;;;;;;9.13;5.65;;;;;;;16.39;65.09;97336.28;1808943;78;25693;-78
2022/07/22 01:07:44;;;;;;;8.63;5.78;;;;;;;16.33;65.17;97341.34;1808811;79;27476;-77
2022/07/22 01:10:11;;;;;;;12.45;5.80;;;;;;;16.29;65.32;97341.58;1808793;79;25740;-77
2022/07/22 01:12:38;;;;;;;10.88;5.80;;;;;;;16.28;65.32;97342.65;1808463;79;25890;-79
2022/07/22 01:15:06;;;;;;;8.85;5.95;;;;;;;16.23;65.37;97343.91;1808759;79;26578;-79
2022/07/22 01:17:33;;;;;;;10.63;5.58;;;;;;;16.17;65.49;97332.96;1808795;79;25461;-78
2022/07/22 01:20:08;;;;;;;7.65;5.37;;;;;;;16.17;65.59;97335.69;1808881;79;28163;-78
2022/07/22 01:22:35;;;;;;;10.88;6.15;;;;;;;16.17;65.66;97330.78;1808689;79;25441;-80
2022/07/22 01:25:01;;;;;;;9.38;6.45;;;;;;;16.11;65.65;97338.02;1808833;79;25812;-79
2022/07/22 01:27:29;;;;;;;12.20;6.22;;;;;;;16.10;65.75;97334.19;1808691;79;25732;-79
2022/07/22 01:29:56;;;;;;;12.23;6.17;;;;;;;16.09;65.84;97331.17;1808842;79;25665;-78
2022/07/22 01:32:22;;;;;;;12.13;6.40;;;;;;;16.05;65.91;97341.75;1808849;79;27414;-77
2022/07/22 01:34:49;;;;;;;7.22;5.83;;;;;;;16.02;66.05;97331.89;1808651;79;26371;-77
2022/07/22 01:37:15;;;;;;;11.70;6.15;;;;;;;15.98;66.10;97338.89;1808567;78;25667;-76
2022/07/22 01:39:42;;;;;;;9.70;5.90;;;;;;;15.95;66.22;97338.84;1808862;79;26382;-77
2022/07/22 01:42:09;;;;;;;10.05;5.90;;;;;;;15.92;66.26;97332.55;1808796;78;25808;-78
2022/07/22 01:44:35;;;;;;;10.63;6.37;;;;;;;15.88;66.32;97332.74;1808782;79;26782;-77
2022/07/22 01:47:02;;;;;;;10.00;6.30;;;;;;;15.83;66.33;97336.20;1808796;79;25670;-77
2022/07/22 01:49:29;;;;;;;7.78;5.85;;;;;;;15.80;66.38;97338.07;1808861;79;25693;-77
2022/07/22 01:51:55;;;;;;;8.48;5.80;;;;;;;15.76;66.58;97336.91;1808735;79;25750;-77
2022/07/22 01:54:22;;;;;;;8.98;6.25;;;;;;;15.74;66.62;97342.30;1808808;79;25672;-77
2022/07/22 01:56:48;;;;;;;9.53;6.05;;;;;;;15.71;66.73;97331.89;1808919;79;27342;-78
2022/07/22 01:59:15;;;;;;;8.98;5.75;;;;;;;15.68;66.79;97331.05;1808755;79;26491;-76
2022/07/22 02:01:42;;;;;;;10.60;5.95;;;;;;;15.61;66.83;97335.80;1808870;79;25666;-77
2022/07/22 02:04:08;;;;;;;9.28;6.10;;;;;;;15.59;66.95;97335.21;1808498;79;25735;-77
2022/07/22 02:06:35;;;;;;;8.83;5.67;;;;;;;15.53;66.97;97333.45;1808862;79;25685;-78
2022/07/22 02:09:02;;;;;;;7.58;6.22;;;;;;;15.42;67.10;97329.73;1808906;79;27452;-78
2022/07/22 02:11:28;;;;;;;9.38;5.53;;;;;;;15.38;67.29;97330.73;1809523;79;25720;-76
2022/07/22 02:13:55;;;;;;;10.65;6.12;;;;;;;15.40;67.43;97335.41;1812185;79;25688;-78
2022/07/22 02:16:22;;;;;;;12.18;7.08;;;;;;;15.36;67.53;97328.80;1812002;79;25773;-77
2022/07/22 02:18:48;;;;;;;14.45;7.15;;;;;;;15.32;67.57;97335.81;1812027;79;25722;-77
2022/07/22 02:21:15;;;;;;;11.33;8.18;;;;;;;15.36;67.71;97331.52;1812083;79;26772;-78
2022/07/22 02:23:41;;;;;;;12.90;8.85;;;;;;;15.38;67.77;97336.18;1811888;79;25453;-78
2022/07/22 02:26:08;;;;;;;12.15;9.18;;;;;;;15.40;67.77;97336.77;1812040;79;26186;-78
2022/07/22 02:28:35;;;;;;;15.63;9.23;;;;;;;15.42;67.82;97333.27;1812043;79;25729;-77
2022/07/22 02:31:01;;;;;;;12.53;7.92;;;;;;;15.41;67.85;97337.06;1812195;79;25734;-77
2022/07/22 02:33:29;;;;;;;13.00;9.70;;;;;;;15.45;67.90;97338.77;1812071;79;27371;-77
2022/07/22 02:35:57;;;;;;;13.45;9.10;;;;;;;15.46;67.86;97343.94;1811893;79;25396;-78
2022/07/22 02:38:24;;;;;;;12.50;8.78;;;;;;;15.46;67.93;97348.02;1811982;79;25740;-77
2022/07/22 02:40:50;;;;;;;12.10;8.23;;;;;;;15.48;67.97;97339.08;1812136;79;25622;-78
2022/07/22 02:43:17;;;;;;;11.60;8.18;;;;;;;15.50;67.96;97341.03;1812159;79;25215;-78
2022/07/22 02:45:43;;;;;;;11.08;7.47;;;;;;;15.48;67.85;97349.97;1812055;79;27448;-78
2022/07/22 02:48:10;;;;;;;11.90;7.78;;;;;;;15.45;67.85;97348.28;1812134;78;25678;-77
2022/07/22 02:50:37;;;;;;;9.75;7.20;;;;;;;15.42;67.95;97348.23;1811876;79;25673;-78
2022/07/22 02:53:04;;;;;;;10.95;6.62;;;;;;;15.40;68.07;97343.56;1812122;78;25696;-78
2022/07/22 02:55:31;;;;;;;8.00;6.42;;;;;;;15.43;68.06;97356.69;1812210;79;25669;-79
2022/07/22 02:58:01;;;;;;;9.88;6.33;;;;;;;15.44;68.06;97352.08;1812190;79;27351;-77
2022/07/22 03:00:27;;;;;;;12.00;6.28;;;;;;;15.43;68.07;97349.06;1806361;79;25935;-78
2022/07/22 03:02:54;;;;;;;12.53;6.83;;;;;;;15.33;67.97;97352.42;1812042;79;25738;-78
2022/07/22 03:05:21;;;;;;;8.23;6.17;;;;;;;15.29;68.05;97354.50;1812087;79;25730;-77
2022/07/22 03:07:48;;;;;;;10.25;6.47;;;;;;;15.24;68.35;97351.13;1812314;79;25942;-78
2022/07/22 03:10:15;;;;;;;9.95;7.00;;;;;;;15.18;68.26;97353.47;1811763;79;27414;-78
2022/07/22 03:12:41;;;;;;;12.45;6.53;;;;;;;15.17;68.47;97355.90;1811895;78;25769;-79
2022/07/22 03:15:09;;;;;;;9.45;6.55;;;;;;;15.17;68.53;97356.43;1812287;79;25729;-77
2022/07/22 03:17:37;;;;;;;9.98;6.85;;;;;;;15.18;68.66;97348.56;1812368;79;25749;-78
2022/07/22 03:20:06;;;;;;;10.05;6.72;;;;;;;15.16;68.69;97351.52;1812754;79;25926;-78
2022/07/22 03:22:33;;;;;;;10.23;6.97;;;;;;;15.15;68.79;97351.23;1812256;79;27224;-79
2022/07/22 03:25:00;;;;;;;8.75;6.00;;;;;;;15.15;68.85;97355.31;1812218;79;25685;-77
2022/07/22 03:27:27;;;;;;;9.33;6.62;;;;;;;15.18;68.91;97367.06;1812302;79;25722;-78
2022/07/22 03:29:54;;;;;;;9.70;6.80;;;;;;;15.18;68.87;97368.43;1812446;79;25699;-79
2022/07/22 03:32:20;;;;;;;8.43;6.87;;;;;;;15.19;68.99;97371.97;1812283;79;25705;-77
2022/07/22 03:34:47;;;;;;;10.48;6.95;;;;;;;15.18;69.20;97375.23;1812423;79;27386;-77
2022/07/22 03:37:13;;;;;;;11.20;6.83;;;;;;;15.19;69.33;97378.23;1811977;79;25701;-78
2022/07/22 03:39:40;;;;;;;11.53;6.65;;;;;;;15.19;69.41;97385.03;1812341;79;25720;-78
2022/07/22 03:42:07;;;;;;;13.83;6.70;;;;;;;15.12;69.34;97386.52;1812131;79;45283;-78
2022/07/22 03:44:34;;;;;;;9.73;6.58;;;;;;;15.16;69.41;97393.66;1812190;79;25455;-78
2022/07/22 03:47:00;;;;;;;11.30;7.03;;;;;;;15.18;69.42;97391.54;1812101;79;27408;-78
2022/07/22 03:49:29;;;;;;;7.58;6.47;;;;;;;15.21;69.46;97395.14;1812381;79;25705;-78
2022/07/22 03:51:55;;;;;;;10.60;7.12;;;;;;;15.27;69.48;97396.88;1812481;79;25717;-77
2022/07/22 03:54:22;;;;;;;13.65;6.65;;;;;;;15.34;69.46;97401.64;1812396;79;26335;-79
2022/07/22 03:56:49;;;;;;;10.68;7.05;;;;;;;15.39;69.52;97404.47;1812262;79;25688;-77
2022/07/22 03:59:16;;;;;;;11.10;6.90;;;;;;;15.39;69.64;97409.08;1812311;79;27450;-79
2022/07/22 04:01:43;;;;;;;9.75;6.60;;;;;;;15.39;69.79;97420.78;1812155;79;25749;-78
2022/07/22 04:04:10;;;;;;;11.90;7.08;;;;;;;15.35;69.83;97411.45;1812535;79;25736;-79
2022/07/22 04:06:36;;;;;;;10.03;7.00;;;;;;;15.35;69.85;97416.06;1812275;79;25683;-78
2022/07/22 04:09:03;;;;;;;13.18;7.28;;;;;;;15.40;69.84;97429.24;1812432;79;25464;-77
2022/07/22 04:11:29;;;;;;;11.97;7.55;;;;;;;15.44;69.83;97424.98;1812185;79;27383;-77
2022/07/22 04:13:56;;;;;;;11.75;7.75;;;;;;;15.46;69.95;97421.46;1811921;79;25759;-77
2022/07/22 04:16:22;;;;;;;15.30;8.00;;;;;;;15.48;70.02;97421.22;1811982;79;25685;-79
2022/07/22 04:18:49;;;;;;;9.53;7.50;;;;;;;15.53;70.15;97417.79;1811763;79;25728;-77
2022/07/22 04:21:16;;;;;;;15.13;7.33;;;;;;;15.57;70.08;97421.19;1812099;79;25389;-77
2022/07/22 04:23:42;;;;;;;15.65;7.72;;;;;;;15.64;70.10;97423.75;1812143;78;27970;-78
2022/07/22 04:26:09;;;;;;;15.65;7.30;;;;;;;15.69;70.03;97426.58;1811990;79;25400;-77
2022/07/22 04:28:35;;;;;;;11.75;6.65;;;;;;;15.73;70.00;97424.47;1812095;79;25630;-76
2022/07/22 04:31:04;;;;;;;12.05;7.67;;;;;;;15.78;69.96;97423.22;1811922;78;25701;-76
2022/07/22 04:33:30;;;;;;;12.70;7.90;;;;;;;15.85;69.90;97429.86;1812148;79;25829;-76
2022/07/22 04:35:57;;;;;;;14.33;9.60;;;;;;;15.93;69.95;97426.76;1812085;79;28170;-76
2022/07/22 04:38:23;;;;;;;18.40;10.10;;;;;;;15.99;70.00;97423.58;1811555;79;25678;-76
2022/07/22 04:40:50;;;;;;;15.40;8.93;;;;;;;16.06;69.96;97416.09;1812030;79;25697;-76
2022/07/22 04:43:17;;;;;;;15.95;8.53;;;;;;;16.14;69.90;97423.31;1819564;78;25682;-76
2022/07/22 04:45:43;;;;;;;13.22;8.10;;;;;;;16.23;69.79;97424.26;1805452;78;25722;-76
2022/07/22 04:48:10;;;;;;;13.25;7.53;;;;;;;16.30;69.72;97423.02;1830922;78;27392;-76
2022/07/22 04:50:37;;;;;;;13.85;8.00;;;;;;;16.37;69.84;97419.61;1831333;78;25721;-76
2022/07/22 04:53:04;;;;;;;15.58;8.73;;;;;;;16.44;69.74;97422.98;1830953;78;25657;-76
2022/07/22 04:55:31;;;;;;;14.50;7.40;;;;;;;16.51;69.44;97424.19;1831365;78;25677;-76
2022/07/22 04:57:57;;;;;;;15.08;8.58;;;;;;;16.59;69.16;97426.48;1831312;78;26067;-77
2022/07/22 05:00:24;;;;;;;16.10;8.03;;;;;;;16.66;69.04;97417.65;1831267;78;27301;-77
2022/07/22 05:02:51;;;;;;;16.10;7.53;;;;;;;16.74;69.17;97419.12;1831215;77;25440;-76
2022/07/22 05:05:17;;;;;;;17.40;8.00;;;;;;;16.80;68.94;97416.20;1831290;78;25218;-76
2022/07/22 05:07:44;;;;;;;14.60;7.78;;;;;;;16.88;68.67;97416.33;1831215;78;26395;-76
2022/07/22 05:10:10;;;;;;;16.65;8.10;;;;;;;16.95;68.63;97409.31;1831326;78;25643;-76
2022/07/22 05:12:37;;;;;;;14.78;9.00;;;;;;;17.00;68.73;97419.77;1832073;78;27384;-76
2022/07/22 05:15:05;;;;;;;15.48;9.20;;;;;;;17.07;68.60;97422.30;1833580;78;25203;-76
2022/07/22 05:17:31;;;;;;;21.90;9.63;;;;;;;17.14;68.79;97414.78;1833737;78;25254;-76
2022/07/22 05:19:58;;;;;;;16.67;8.78;;;;;;;17.21;68.65;97418.13;1833563;78;26486;-76
2022/07/22 05:22:24;;;;;;;12.68;8.48;;;;;;;17.26;68.64;97417.67;1833703;78;25679;-77
2022/07/22 05:24:51;;;;;;;14.05;7.80;;;;;;;17.34;68.65;97416.93;1833596;78;27548;-76
2022/07/22 05:27:18;;;;;;;11.73;8.23;;;;;;;17.42;68.86;97424.12;1833611;78;25815;-76
2022/07/22 05:29:44;;;;;;;10.78;7.03;;;;;;;17.49;68.77;97424.77;1833795;77;25805;-76
2022/07/22 05:32:11;;;;;;;11.88;7.72;;;;;;;17.56;68.19;97418.56;1833716;78;26307;-76
2022/07/22 05:34:37;;;;;;;15.70;8.08;;;;;;;17.64;68.03;97409.11;1833657;77;25693;-76
2022/07/22 05:37:04;;;;;;;14.43;7.15;;;;;;;17.71;68.13;97422.58;1833506;78;27395;-77
2022/07/22 05:39:30;;;;;;;14.23;8.15;;;;;;;17.79;68.05;97419.38;1833629;78;25637;-77
2022/07/22 05:41:57;;;;;;;11.33;6.72;;;;;;;17.87;67.70;97415.64;1833717;76;25707;-77
2022/07/22 05:44:24;;;;;;;13.05;7.00;;;;;;;17.96;67.43;97418.75;1833694;78;25708;-76
2022/07/22 05:46:50;;;;;;;15.65;8.65;;;;;;;18.05;67.40;97423.20;1833723;76;26042;-77
2022/07/22 05:49:17;;;;;;;18.40;8.38;;;;;;;18.12;67.77;97417.80;1833270;77;27337;-76
2022/07/22 05:51:43;;;;;;;13.68;7.47;;;;;;;18.22;67.83;97419.83;1833295;78;25708;-76
2022/07/22 05:54:10;;;;;;;16.27;7.50;;;;;;;18.30;67.79;97420.70;1833354;78;25752;-77
2022/07/22 05:56:36;;;;;;;12.95;7.62;;;;;;;18.37;67.34;97418.56;1833574;78;25654;-76
2022/07/22 05:59:03;;;;;;;11.75;7.62;;;;;;;18.47;67.15;97416.48;1833693;78;25642;-76
2022/07/22 06:01:29;;;;;;;14.65;7.78;;;;;;;18.55;67.20;97409.98;1833634;78;27619;-76
2022/07/22 06:03:56;;;;;;;13.10;8.43;;;;;;;18.66;67.65;97410.91;1833372;78;25760;-76
2022/07/22 06:06:22;;;;;;;14.40;8.70;;;;;;;18.77;67.76;97408.52;1838885;78;25647;-76
2022/07/22 06:08:49;;;;;;;12.35;7.92;;;;;;;18.89;67.73;97413.78;1838864;78;25622;-76
2022/07/22 06:11:15;;;;;;;16.82;8.13;;;;;;;19.02;67.79;97414.69;1839055;78;25697;-77
2022/07/22 06:13:42;;;;;;;15.88;8.25;;;;;;;19.16;67.50;97410.94;1823975;78;27384;-76
2022/07/22 06:16:08;;;;;;;13.78;7.80;;;;;;;19.30;67.58;97401.98;1801974;78;25401;-76
2022/07/22 06:18:35;;;;;;;14.33;8.73;;;;;;;19.42;67.54;97399.84;1770262;79;25687;-76
2022/07/22 06:21:02;;;;;;;21.73;14.60;;;;;;;19.58;67.41;97393.06;1824277;78;25751;-76
2022/07/22 06:23:28;;;;;;;207.55;150.47;;;;;;;19.76;67.37;97393.95;1801962;79;25647;-77
2022/07/22 06:25:55;;;;;;;145.15;103.62;;;;;;;19.96;67.16;97396.72;1770291;81;27543;-77
2022/07/22 06:28:21;;;;;;;69.03;44.88;;;;;;;20.14;66.92;97394.02;1801813;79;25282;-76
2022/07/22 06:30:48;;;;;;;31.90;18.25;;;;;;;20.31;66.74;97391.81;1770184;80;25689;-75
2022/07/22 06:33:15;;;;;;;21.95;11.80;;;;;;;20.48;66.49;97392.95;1824261;77;25752;-75
2022/07/22 06:35:41;;;;;;;53.05;31.12;;;;;;;20.85;66.13;97388.52;1802029;79;25681;-76
2022/07/22 06:38:08;;;;;;;59.93;37.58;;;;;;;20.85;66.13;97388.52;1770145;79;27417;-76
2022/07/22 06:40:35;;;;;;;26.35;18.65;;;;;;;21.06;65.96;97385.99;1801540;79;25764;-76
2022/07/22 06:43:02;;;;;;;17.00;11.63;;;;;;;21.27;65.78;97384.58;1770255;81;25689;-76
2022/07/22 06:45:29;;;;;;;16.73;11.40;;;;;;;21.36;65.51;97369.19;1801606;79;25809;-75
2022/07/22 06:47:56;;;;;;;15.80;10.00;;;;;;;21.69;65.02;97356.09;1770256;80;25720;-77
2022/07/22 06:50:23;;;;;;;15.93;11.03;;;;;;;21.69;65.02;97356.09;1801949;79;28340;-77
2022/07/22 06:52:49;;;;;;;19.87;10.82;;;;;;;22.02;64.77;97375.70;1824176;78;25487;-77
2022/07/22 06:55:16;;;;;;;18.52;10.63;;;;;;;22.20;64.36;97375.86;1802052;79;25698;-76
2022/07/22 06:57:42;;;;;;;20.05;10.82;;;;;;;22.43;64.27;97367.97;1770386;80;26335;-77
2022/07/22 07:00:11;;;;;;;13.40;10.58;;;;;;;22.61;63.70;97363.94;1802018;78;25760;-77
2022/07/22 07:02:37;;;;;;;15.98;10.75;;;;;;;22.78;63.26;97364.92;1770220;80;27499;-80
2022/07/22 07:05:05;;;;;;;14.95;10.35;;;;;;;22.89;62.73;97358.19;1801925;79;25717;-80
2022/07/22 07:07:32;;;;;;;14.85;10.08;;;;;;;22.98;62.55;97359.19;1770265;79;25674;-80
2022/07/22 07:09:59;;;;;;;17.87;11.00;;;;;;;23.08;62.29;97354.12;1801940;79;25679;-80
2022/07/22 07:12:25;;;;;;;23.52;10.63;;;;;;;23.18;62.04;97358.16;1770613;79;25682;-79
2022/07/22 07:14:52;;;;;;;17.35;10.20;;;;;;;23.28;61.47;97353.08;1805992;79;27504;-80
2022/07/22 07:17:18;;;;;;;14.43;10.53;;;;;;;23.39;61.21;97356.52;1774292;80;25574;-80
2022/07/22 07:19:45;;;;;;;12.30;10.10;;;;;;;23.54;61.23;97357.73;1806157;78;25697;-80
2022/07/22 07:22:11;;;;;;;20.35;10.82;;;;;;;23.63;60.77;97351.27;1774345;80;25817;-80
2022/07/22 07:24:38;;;;;;;14.30;9.75;;;;;;;23.75;60.50;97356.34;1806041;79;26003;-79
2022/07/22 07:27:05;;;;;;;13.43;10.15;;;;;;;23.86;60.43;97360.59;1774257;80;28145;-81
2022/07/22 07:29:31;;;;;;;16.70;10.90;;;;;;;23.97;59.88;97358.49;1805978;79;25689;-80
2022/07/22 07:31:58;;;;;;;15.00;10.55;;;;;;;24.06;59.57;97357.52;1774008;80;25203;-80
2022/07/22 07:34:25;;;;;;;14.53;9.88;;;;;;;24.15;59.44;97352.72;1837006;78;25720;-80
2022/07/22 07:36:51;;;;;;;22.30;10.05;;;;;;;24.28;59.30;97365.75;1837078;78;25731;-79
2022/07/22 07:39:18;;;;;;;13.35;9.53;;;;;;;24.40;59.01;97359.20;1836622;78;28190;-80
2022/07/22 07:41:44;;;;;;;16.73;10.60;;;;;;;24.53;58.83;97361.20;1836842;78;25636;-80
2022/07/22 07:44:11;;;;;;;13.22;10.25;;;;;;;24.61;58.45;97360.52;1836913;78;25796;-78
2022/07/22 07:46:37;;;;;;;12.15;10.08;;;;;;;24.68;58.35;97353.22;1836966;78;25703;-77
2022/07/22 07:49:04;;;;;;;12.43;10.15;;;;;;;24.72;58.30;97354.26;1837018;78;25763;-78
2022/07/22 07:51:31;;;;;;;21.73;10.40;;;;;;;24.77;58.68;97356.91;1837006;78;27404;-78
2022/07/22 07:53:57;;;;;;;16.20;10.68;;;;;;;24.86;58.70;97346.00;1836880;78;26334;-77
2022/07/22 07:56:24;;;;;;;12.93;9.98;;;;;;;25.10;58.93;97349.44;1843957;77;25726;-78
2022/07/22 07:58:50;;;;;;;13.70;9.80;;;;;;;25.47;59.01;97349.78;1845155;77;25757;-78
2022/07/22 08:01:17;;;;;;;16.93;10.13;;;;;;;25.79;58.59;97355.18;1844915;77;25732;-79
2022/07/22 08:03:43;;;;;;;17.90;9.53;;;;;;;26.20;58.02;97349.50;1834086;77;28266;-78
2022/07/22 08:06:10;;;;;;;11.68;10.00;;;;;;;26.69;57.29;97349.14;1820138;78;25674;-78
2022/07/22 08:08:37;;;;;;;16.80;9.38;;;;;;;27.18;56.85;97340.37;1820635;78;25701;-79
2022/07/22 08:11:03;;;;;;;12.88;9.30;;;;;;;27.69;56.31;97344.47;1820573;78;25794;-79
2022/07/22 08:13:30;;;;;;;19.40;9.78;;;;;;;28.16;55.61;97345.48;1815472;78;25609;-79
2022/07/22 08:15:57;;;;;;;16.85;8.83;;;;;;;28.58;54.81;97341.91;1808875;79;27445;-79
2022/07/22 08:18:24;;;;;;;17.70;9.05;;;;;;;28.97;53.83;97335.88;1837847;77;25610;-80
2022/07/22 08:20:51;;;;;;;18.20;9.53;;;;;;;29.16;52.98;97335.47;1837151;77;25716;-79
2022/07/22 08:23:18;;;;;;;13.53;9.10;;;;;;;29.39;52.47;97338.25;1832735;77;25654;-79
2022/07/22 08:25:44;;;;;;;14.07;9.38;;;;;;;29.68;52.16;97336.86;1796547;79;25642;-79
2022/07/22 08:28:11;;;;;;;12.60;9.15;;;;;;;29.99;51.14;97339.86;1767246;81;28199;-79
2022/07/22 08:30:39;;;;;;;13.55;9.33;;;;;;;30.17;50.89;97340.56;1799285;79;25733;-79
2022/07/22 08:33:06;;;;;;;17.35;9.40;;;;;;;30.27;50.73;97342.34;1800438;79;25770;-79
2022/07/22 08:35:33;;;;;;;16.48;8.73;;;;;;;30.56;50.39;97340.63;1802159;79;26505;-79
2022/07/22 08:37:59;;;;;;;11.08;8.45;;;;;;;30.74;49.05;97335.95;1801869;79;25734;-79
2022/07/22 08:40:26;;;;;;;14.35;10.10;;;;;;;31.05;48.48;97340.99;1802122;79;27423;-80
2022/07/22 08:42:53;;;;;;;12.58;8.95;;;;;;;31.31;47.79;97345.47;1802048;79;25665;-80
2022/07/22 08:45:22;;;;;;;12.63;9.40;;;;;;;31.50;47.04;97337.36;1802234;79;25716;-80
2022/07/22 08:47:51;;;;;;;13.75;8.98;;;;;;;31.64;47.09;97343.41;1802030;79;25750;-80
2022/07/22 08:50:18;;;;;;;12.43;9.15;;;;;;;31.80;46.53;97344.33;1802047;79;25835;-80
2022/07/22 08:52:45;;;;;;;10.78;9.28;;;;;;;32.00;46.06;97345.95;1802041;79;27338;-79
2022/07/22 08:55:11;;;;;;;13.15;8.75;;;;;;;32.27;45.48;97352.16;1802113;79;25236;-79
2022/07/22 08:57:46;;;;;;;15.40;8.55;;;;;;;32.58;44.65;97359.05;1802172;79;25632;-80
2022/07/22 09:00:18;;;;;;;15.58;9.00;;;;;;;32.78;44.24;97358.05;1799315;79;25747;-79
2022/07/22 09:02:45;;;;;;;11.55;8.85;;;;;;;33.04;43.62;97354.18;1802412;79;28415;-78
2022/07/22 09:05:14;;;;;;;16.25;8.40;;;;;;;33.15;43.29;97361.45;1802034;79;27416;-79
2022/07/22 09:07:44;;;;;;;11.65;8.38;;;;;;;33.25;42.88;97367.34;1801838;79;25425;-77
2022/07/22 09:10:16;;;;;;;10.10;8.28;;;;;;;33.30;42.41;97363.48;1802124;79;25742;-77
2022/07/22 09:13:00;;;;;;;;;;;;;;;33.38;41.95;97357.47;1804943;79;25778;-79
2022/07/22 09:15:35;;;;;;;10.08;8.33;;;;;;;33.49;40.81;97352.37;1802316;79;26434;-78
2022/07/22 09:18:02;;;;;;;12.37;8.23;;;;;;;33.61;41.43;97341.66;1802281;79;27475;-79
2022/07/22 09:20:30;;;;;;;16.45;8.78;;;;;;;33.82;41.13;97337.98;1801659;79;25688;-79
2022/07/22 09:22:57;;;;;;;10.85;8.43;;;;;;;34.03;40.83;97336.87;1801706;79;25740;-80
2022/07/22 09:25:33;;;;;;;9.95;7.67;;;;;;;34.22;40.25;97341.89;1802086;79;25841;-80
2022/07/22 09:28:11;;;;;;;12.55;8.25;;;;;;;34.25;39.86;97332.77;1802141;79;25849;-80
2022/07/22 09:30:42;;;;;;;10.75;8.30;;;;;;;34.29;40.47;97345.48;1802180;79;28180;-80
2022/07/22 09:33:09;;;;;;;10.72;8.58;;;;;;;34.19;40.01;97350.22;1797520;79;25752;-79
2022/07/22 09:35:37;;;;;;;14.93;9.03;;;;;;;34.23;39.65;97342.70;1799817;79;25731;-79
2022/07/22 09:38:08;;;;;;;11.03;8.03;;;;;;;34.13;39.74;97346.09;1799788;79;25715;-79
2022/07/22 09:40:44;;;;;;;8.90;8.00;;;;;;;33.91;39.72;97347.61;1796664;79;25749;-79
2022/07/22 09:43:16;;;;;;;10.70;9.45;;;;;;;33.61;39.59;97345.27;1800284;79;27421;-80
2022/07/22 09:45:59;;;;;;;9.95;8.25;;;;;;;33.50;39.93;97353.17;1801203;79;25770;-79
2022/07/22 09:48:27;;;;;;;10.72;7.62;;;;;;;33.17;39.95;97350.13;1739010;82;25730;-80
2022/07/22 09:50:56;;;;;;;13.93;9.15;;;;;;;32.92;39.66;97344.47;1739199;82;25874;-80
2022/07/22 09:53:28;;;;;;;13.30;7.90;;;;;;;32.56;39.82;97344.85;1739408;82;25832;-80
2022/07/22 09:55:57;;;;;;;9.80;8.25;;;;;;;32.31;40.32;97342.50;1739272;82;27316;-79
2022/07/22 09:58:25;;;;;;;12.30;8.10;;;;;;;32.28;41.20;97344.02;1673401;85;25678;-80
2022/07/22 10:00:54;;;;;;;11.03;8.55;;;;;;;32.32;41.11;97343.55;1640532;86;25937;-79
2022/07/22 10:03:30;;;;;;;17.57;7.85;;;;;;;32.41;41.71;97343.39;1687190;83;25799;-79
2022/07/22 10:05:59;;;;;;;10.45;8.38;;;;;;;32.58;41.10;97342.28;1687293;83;25316;-79
2022/07/22 10:08:28;;;;;;;13.95;8.35;;;;;;;32.67;40.82;97345.15;1687239;85;28055;-79
2022/07/22 10:10:59;;;;;;;9.53;7.62;;;;;;;32.64;40.72;97347.84;1687279;85;25745;-80
2022/07/22 10:13:27;;;;;;;11.60;8.10;;;;;;;32.55;40.34;97344.62;1687511;84;25928;-80
2022/07/22 10:15:55;;;;;;;13.98;8.05;;;;;;;32.36;40.61;97347.27;1686948;83;26574;-79
2022/07/22 10:18:22;;;;;;;12.85;8.48;;;;;;;32.24;40.90;97343.70;1687337;85;25769;-79
2022/07/22 10:21:02;;;;;;;13.03;8.55;;;;;;;32.10;40.85;97337.08;1687469;85;27605;-79
2022/07/22 10:23:29;;;;;;;13.48;7.95;;;;;;;31.99;41.13;97340.13;1686884;84;26632;-79
2022/07/22 10:25:59;;;;;;;9.28;8.33;;;;;;;31.97;41.68;97343.27;1687302;85;25822;-79
2022/07/22 10:28:30;;;;;;;9.30;8.33;;;;;;;32.16;41.93;97342.05;1689524;83;25822;-79
2022/07/22 10:31:22;;;;;;;9.93;7.50;;;;;;;32.21;41.80;97341.03;1604232;88;25949;-79
2022/07/22 10:33:54;;;;;;;12.13;8.50;;;;;;;32.28;41.53;97348.20;1604126;89;27650;-79
2022/07/22 10:36:43;;;;;;;16.73;8.30;;;;;;;32.40;40.72;97348.16;1555649;92;26134;-79
2022/07/22 10:39:13;;;;;;;14.20;8.35;;;;;;;32.38;40.88;97346.30;1555364;90;25896;-78
2022/07/22 10:41:45;;;;;;;9.18;7.87;;;;;;;32.31;40.96;97353.09;1541230;93;25756;-79
2022/07/22 10:44:12;;;;;;;15.25;8.23;;;;;;;32.32;40.37;97349.14;1542658;91;25857;-78
2022/07/22 10:46:54;;;;;;;9.98;8.25;;;;;;;32.36;40.22;97347.85;1565209;91;27395;-80
2022/07/22 10:49:25;;;;;;;14.98;8.05;;;;;;;32.37;40.00;97346.08;1565067;91;26505;-80
2022/07/22 10:52:16;;;;;;;13.22;8.38;;;;;;;32.35;40.02;97345.64;1565627;90;25831;-78
2022/07/22 10:55:17;;;;;;;11.50;7.97;;;;;;;32.22;40.41;97352.43;1552131;92;26481;-80
2022/07/22 10:57:44;;;;;;;10.82;8.83;;;;;;;32.20;40.32;97346.38;1528263;93;25944;-80
2022/07/22 11:00:11;;;;;;;10.10;8.50;;;;;;;32.08;41.13;97343.59;1554475;92;28378;-80
2022/07/22 11:02:39;;;;;;;18.92;8.65;;;;;;;31.91;41.31;97343.84;1557818;91;25588;-80
2022/07/22 11:05:08;;;;;;;11.43;7.92;;;;;;;31.81;41.98;97340.37;1592822;90;25849;-78
2022/07/22 11:07:43;;;;;;;8.48;7.67;;;;;;;31.94;41.80;97344.55;1566987;91;26558;-80
2022/07/22 11:10:16;;;;;;;10.82;7.85;;;;;;;32.08;41.18;97341.61;1522755;92;25517;-79
2022/07/22 11:12:43;;;;;;;13.55;8.38;;;;;;;32.17;41.03;97331.69;1491423;95;27413;-80
2022/07/22 11:15:11;;;;;;;14.28;7.80;;;;;;;32.22;41.36;97340.45;1486972;95;25848;-80
2022/07/22 11:17:39;;;;;;;16.15;8.53;;;;;;;32.26;40.93;97339.36;1485435;96;25896;-80
2022/07/22 11:20:10;;;;;;;15.60;8.28;;;;;;;32.26;40.21;97338.55;1485428;96;25864;-76
2022/07/22 11:22:37;;;;;;;16.90;8.45;;;;;;;32.21;40.05;97336.84;1494819;94;26160;-79
2022/07/22 11:25:09;;;;;;;11.22;8.30;;;;;;;32.27;39.77;97335.41;1488439;94;26895;-79
2022/07/22 11:27:36;;;;;;;9.03;8.13;;;;;;;32.33;39.85;97336.80;1518342;90;25836;-79
2022/07/22 11:30:06;;;;;;;14.35;8.38;;;;;;;32.34;39.73;97337.03;1610258;89;25826;-79